createdAt,value
2023-03-10T00:02:04.539Z,12.37
2023-03-10T00:04:53.239Z,12.77
2023-03-10T00:07:41.529Z,11.77
2023-03-10T00:10:30.473Z,12.07
2023-03-10T00:13:18.053Z,12.77
2023-03-10T00:16:05.305Z,13.60
2023-03-10T00:18:53.598Z,13.00
2023-03-10T00:21:40.087Z,12.40
2023-03-10T00:24:28.416Z,12.83
2023-03-10T00:27:15.086Z,12.87
2023-03-10T00:30:02.032Z,13.33
2023-03-10T00:32:50.979Z,14.47
2023-03-10T00:35:37.668Z,12.97
2023-03-10T00:38:25.309Z,12.77
2023-03-10T00:41:15.329Z,12.40
2023-03-10T00:44:03.632Z,13.37
2023-03-10T00:46:50.840Z,12.70
2023-03-10T00:49:37.631Z,11.90
2023-03-10T00:52:25.427Z,12.40
2023-03-10T00:55:13.750Z,12.67
2023-03-10T00:58:01.721Z,11.93
2023-03-10T01:00:48.312Z,13.97
2023-03-10T01:03:35.094Z,12.87
2023-03-10T01:06:23.004Z,11.83
2023-03-10T01:09:09.748Z,12.80
2023-03-10T01:11:56.359Z,12.47
2023-03-10T01:14:44.654Z,11.10
2023-03-10T01:17:31.649Z,10.93
2023-03-10T01:20:19.103Z,12.80
2023-03-10T01:23:05.971Z,11.87
2023-03-10T01:25:53.810Z,11.27
2023-03-10T01:28:40.804Z,11.87
2023-03-10T01:31:28.893Z,12.73
2023-03-10T01:34:16.404Z,11.87
2023-03-10T01:37:03.110Z,12.50
2023-03-10T01:39:49.974Z,11.90
2023-03-10T01:42:36.853Z,12.27
2023-03-10T01:46:00.522Z,11.67
2023-03-10T01:48:49.837Z,11.93
2023-03-10T01:51:38.563Z,12.50
2023-03-10T01:54:30.137Z,15.57
2023-03-10T01:57:20.085Z,13.03
2023-03-10T02:00:12.350Z,12.13
2023-03-10T02:03:08.713Z,13.00
2023-03-10T02:05:59.705Z,12.00
2023-03-10T02:08:50.184Z,11.47
2023-03-10T02:11:39.616Z,12.27
2023-03-10T02:14:26.878Z,12.20
2023-03-10T02:17:17.222Z,11.60
2023-03-10T02:20:20.455Z,11.53
2023-03-10T02:23:08.893Z,11.93
2023-03-10T02:26:01.019Z,11.83
2023-03-10T02:28:51.446Z,11.03
2023-03-10T02:31:38.867Z,12.07
2023-03-10T02:34:26.616Z,9.90
2023-03-10T02:37:21.844Z,11.43
2023-03-10T02:40:32.158Z,11.10
2023-03-10T02:43:26.554Z,10.83
2023-03-10T02:46:20.205Z,10.37
2023-03-10T02:49:10.503Z,10.43
2023-03-10T02:52:04.062Z,10.03
2023-03-10T02:54:50.730Z,10.87
2023-03-10T02:57:37.623Z,10.60
2023-03-10T03:00:24.572Z,10.60
2023-03-10T03:03:14.232Z,10.83
2023-03-10T03:06:01.502Z,9.40
2023-03-10T03:08:48.567Z,8.40
2023-03-10T03:11:37.802Z,10.70
2023-03-10T03:14:27.611Z,8.53
2023-03-10T03:17:14.309Z,8.70
2023-03-10T03:20:11.789Z,8.40
2023-03-10T03:23:00.208Z,7.53
2023-03-10T03:25:47.609Z,7.87
2023-03-10T03:28:38.216Z,7.93
2023-03-10T03:31:26.566Z,7.97
2023-03-10T03:34:28.134Z,6.60
2023-03-10T03:37:19.352Z,6.87
2023-03-10T03:40:12.828Z,6.97
2023-03-10T03:43:01.632Z,7.03
2023-03-10T03:45:48.568Z,7.53
2023-03-10T03:48:36.009Z,6.70
2023-03-10T03:51:26.218Z,5.57
2023-03-10T03:54:14.436Z,6.07
2023-03-10T03:57:01.500Z,5.93
2023-03-10T03:59:49.039Z,5.73
2023-03-10T04:02:36.586Z,5.60
2023-03-10T04:05:23.712Z,7.17
2023-03-10T04:08:10.508Z,6.10
2023-03-10T04:10:58.665Z,6.30
2023-03-10T04:13:48.484Z,6.43
2023-03-10T04:16:35.818Z,5.90
2023-03-10T04:19:24.240Z,6.50
2023-03-10T04:22:16.138Z,6.20
2023-03-10T04:25:06.110Z,6.30
2023-03-10T04:27:55.959Z,6.47
2023-03-10T04:30:43.681Z,6.40
2023-03-10T04:33:32.259Z,5.57
2023-03-10T04:36:19.859Z,5.57
2023-03-10T04:39:10.186Z,5.70
2023-03-10T04:41:56.581Z,5.13
2023-03-10T04:44:44.619Z,5.03
2023-03-10T04:47:31.577Z,6.13
2023-03-10T04:50:19.943Z,5.83
2023-03-10T04:53:08.361Z,5.43
2023-03-10T04:55:55.002Z,5.43
2023-03-10T04:58:42.432Z,6.47
2023-03-10T05:01:34.410Z,6.20
2023-03-10T05:04:24.499Z,5.37
2023-03-10T05:07:12.870Z,6.93
2023-03-10T05:10:06.935Z,7.50
2023-03-10T05:12:53.493Z,5.73
2023-03-10T05:15:40.886Z,6.10
2023-03-10T05:18:29.118Z,6.13
2023-03-10T05:21:17.529Z,6.20
2023-03-10T05:24:06.189Z,4.87
2023-03-10T05:26:53.633Z,4.63
2023-03-10T05:29:40.871Z,5.07
2023-03-10T05:32:35.864Z,4.07
2023-03-10T05:35:24.220Z,5.37
2023-03-10T05:38:11.833Z,5.60
2023-03-10T05:40:59.232Z,4.90
2023-03-10T05:43:46.054Z,5.60
2023-03-10T05:46:35.335Z,5.13
2023-03-10T05:49:22.604Z,5.03
2023-03-10T05:52:10.624Z,4.57
2023-03-10T05:54:59.580Z,4.93
2023-03-10T05:57:47.397Z,4.70
2023-03-10T06:00:34.135Z,5.43
2023-03-10T06:03:23.342Z,5.07
2023-03-10T06:06:10.392Z,5.33
2023-03-10T06:08:58.542Z,5.13
2023-03-10T06:11:45.273Z,5.47
2023-03-10T06:14:31.989Z,5.20
2023-03-10T06:17:19.851Z,5.37
2023-03-10T06:20:07.264Z,6.73
2023-03-10T06:22:54.292Z,5.63
2023-03-10T06:25:42.857Z,5.80
2023-03-10T06:28:33.128Z,6.57
2023-03-10T06:31:22.271Z,5.40
2023-03-10T06:34:08.994Z,5.30
2023-03-10T06:36:56.361Z,5.00
2023-03-10T06:39:43.094Z,5.23
2023-03-10T06:42:33.133Z,5.70
2023-03-10T06:45:19.939Z,5.83
2023-03-10T06:48:06.952Z,5.73
2023-03-10T06:50:59.209Z,4.67
2023-03-10T06:53:46.612Z,4.63
2023-03-10T06:56:33.314Z,5.27
2023-03-10T06:59:21.591Z,5.53
2023-03-10T07:02:09.208Z,6.87
2023-03-10T07:04:56.055Z,5.13
2023-03-10T07:07:42.666Z,5.97
2023-03-10T07:10:29.557Z,4.50
2023-03-10T07:13:17.412Z,4.70
2023-03-10T07:16:06.604Z,4.43
2023-03-10T07:18:52.991Z,5.00
2023-03-10T07:21:39.895Z,5.50
2023-03-10T07:24:26.312Z,5.03
2023-03-10T07:27:13.040Z,5.27
2023-03-10T07:30:00.000Z,4.47
2023-03-10T07:32:48.279Z,4.80
2023-03-10T07:35:36.761Z,5.13
2023-03-10T07:38:23.557Z,6.03
2023-03-10T07:41:12.535Z,5.33
2023-03-10T07:43:59.481Z,4.63
2023-03-10T07:46:46.178Z,5.03
2023-03-10T07:49:34.543Z,5.27
2023-03-10T07:52:21.514Z,4.47
2023-03-10T07:55:09.125Z,4.77
2023-03-10T07:57:56.881Z,5.17
2023-03-10T08:00:43.533Z,5.47
2023-03-10T08:03:30.472Z,5.63
2023-03-10T08:06:23.350Z,5.43
2023-03-10T08:09:09.823Z,4.33
2023-03-10T08:11:56.980Z,4.50
2023-03-10T08:14:43.471Z,5.23
2023-03-10T08:17:31.255Z,5.27
2023-03-10T08:20:18.642Z,6.27
2023-03-10T08:23:06.519Z,5.10
2023-03-10T08:25:53.608Z,4.70
2023-03-10T08:28:40.129Z,4.60
2023-03-10T08:31:27.004Z,4.20
2023-03-10T08:34:14.105Z,5.37
2023-03-10T08:37:01.039Z,5.50
2023-03-10T08:39:50.139Z,4.13
2023-03-10T08:42:37.157Z,5.17
2023-03-10T08:45:23.699Z,4.77
2023-03-10T08:48:10.433Z,5.10
2023-03-10T08:50:57.883Z,7.73
2023-03-10T08:53:46.756Z,6.90
2023-03-10T08:56:34.836Z,4.67
2023-03-10T08:59:21.578Z,4.50
2023-03-10T09:02:19.479Z,4.90
2023-03-10T09:05:07.050Z,6.57
2023-03-10T09:07:53.961Z,5.07
2023-03-10T09:10:45.594Z,4.27
2023-03-10T09:13:34.222Z,4.27
2023-03-10T09:16:21.480Z,4.07
2023-03-10T09:19:08.926Z,4.43
2023-03-10T09:21:57.636Z,4.13
2023-03-10T09:24:44.331Z,4.47
2023-03-10T09:27:31.018Z,4.30
2023-03-10T09:30:19.448Z,3.67
2023-03-10T09:33:07.752Z,3.50
2023-03-10T09:36:05.923Z,4.50
2023-03-10T09:38:53.503Z,3.73
2023-03-10T09:41:58.192Z,4.50
2023-03-10T09:44:56.996Z,3.80
2023-03-10T09:47:54.324Z,4.50
2023-03-10T09:50:44.747Z,4.73
2023-03-10T09:53:49.796Z,4.60
2023-03-10T09:56:37.941Z,4.03
2023-03-10T09:59:32.251Z,4.70
2023-03-10T10:02:23.432Z,4.70
2023-03-10T10:05:18.849Z,4.57
2023-03-10T10:08:19.416Z,4.50
2023-03-10T10:11:07.026Z,4.57
2023-03-10T10:14:08.113Z,4.30
2023-03-10T10:17:06.914Z,4.70
2023-03-10T10:19:54.846Z,4.00
2023-03-10T10:22:45.583Z,4.73
2023-03-10T10:25:33.131Z,4.90
2023-03-10T10:28:24.857Z,5.33
2023-03-10T10:31:17.643Z,4.23
2023-03-10T10:34:06.258Z,5.23
2023-03-10T10:36:56.021Z,4.70
2023-03-10T10:39:44.649Z,4.40
2023-03-10T10:42:33.562Z,4.30
2023-03-10T10:45:28.566Z,4.60
2023-03-10T10:48:34.326Z,5.13
2023-03-10T10:51:24.629Z,4.37
2023-03-10T10:54:28.365Z,4.70
2023-03-10T10:57:21.244Z,4.97
2023-03-10T11:00:19.106Z,4.40
2023-03-10T11:03:21.232Z,5.53
2023-03-10T11:06:16.107Z,4.90
2023-03-10T11:09:08.293Z,4.53
2023-03-10T11:12:04.259Z,4.40
2023-03-10T11:15:12.465Z,5.03
2023-03-10T11:18:06.989Z,4.13
2023-03-10T11:21:01.590Z,5.03
2023-03-10T11:23:55.761Z,4.53
2023-03-10T11:26:52.604Z,5.03
2023-03-10T11:29:53.086Z,4.73
2023-03-10T11:32:54.850Z,4.90
2023-03-10T11:35:45.986Z,4.57
2023-03-10T11:38:39.211Z,5.13
2023-03-10T11:41:29.179Z,5.30
2023-03-10T11:44:26.795Z,4.23
2023-03-10T11:47:21.469Z,5.17
2023-03-10T11:50:21.951Z,4.47
2023-03-10T11:53:15.231Z,5.30
2023-03-10T11:56:03.618Z,4.93
2023-03-10T11:58:54.721Z,5.80
2023-03-10T12:01:47.420Z,5.00
2023-03-10T12:04:39.804Z,5.80
2023-03-10T12:07:31.254Z,5.33
2023-03-10T12:10:19.848Z,5.63
2023-03-10T12:13:06.870Z,6.07
2023-03-10T12:15:57.717Z,6.00
2023-03-10T12:18:44.291Z,6.20
2023-03-10T12:21:32.330Z,5.90
2023-03-10T12:24:44.732Z,5.57
2023-03-10T12:27:31.031Z,6.13
2023-03-10T12:30:45.744Z,5.73
2023-03-10T12:33:42.287Z,5.93
2023-03-10T12:36:39.562Z,5.87
2023-03-10T12:39:41.798Z,6.17
2023-03-10T12:42:32.203Z,5.60
2023-03-10T12:45:28.540Z,6.50
2023-03-10T12:48:19.976Z,7.20
2023-03-10T12:51:14.168Z,6.43
2023-03-10T12:54:07.777Z,6.40
2023-03-10T12:57:04.718Z,7.70
2023-03-10T13:00:01.068Z,7.97
2023-03-10T13:02:52.025Z,7.17
2023-03-10T13:05:42.210Z,7.73
2023-03-10T13:08:36.140Z,7.57
2023-03-10T13:11:37.053Z,7.30
2023-03-10T13:14:24.396Z,7.57
2023-03-10T13:17:23.064Z,6.83
2023-03-10T13:20:17.397Z,7.33
2023-03-10T13:23:04.308Z,8.27
2023-03-10T13:25:55.955Z,8.23
2023-03-10T13:28:52.372Z,8.70
2023-03-10T13:31:39.297Z,8.23
2023-03-10T13:34:31.054Z,7.90
2023-03-10T13:37:17.806Z,7.47
2023-03-10T13:40:10.301Z,8.27
2023-03-10T13:42:57.989Z,8.27
2023-03-10T13:45:45.400Z,7.60
2023-03-10T13:48:33.462Z,8.60
2023-03-10T13:51:23.871Z,9.40
2023-03-10T13:54:20.677Z,8.07
2023-03-10T13:57:14.030Z,8.03
2023-03-10T14:00:05.907Z,7.70
2023-03-10T14:02:59.447Z,7.53
2023-03-10T14:05:47.873Z,9.00
2023-03-10T14:08:36.020Z,8.17
2023-03-10T14:11:33.917Z,9.77
2023-03-10T14:14:29.422Z,8.97
2023-03-10T14:17:35.239Z,10.23
2023-03-10T14:20:29.626Z,8.90
2023-03-10T14:23:29.232Z,8.77
2023-03-10T14:26:18.454Z,10.27
2023-03-10T14:29:11.642Z,9.83
2023-03-10T14:31:57.966Z,8.40
2023-03-10T14:34:44.986Z,9.50
2023-03-10T14:37:31.937Z,8.47
2023-03-10T14:40:20.813Z,8.17
2023-03-10T14:43:15.285Z,9.50
2023-03-10T14:46:03.222Z,8.90
2023-03-10T14:48:50.276Z,8.40
2023-03-10T14:51:37.123Z,10.27
2023-03-10T14:54:25.529Z,10.30
2023-03-10T14:57:15.909Z,9.07
2023-03-10T15:00:06.625Z,8.60
2023-03-10T15:02:53.334Z,9.37
2023-03-10T15:05:48.210Z,8.53
2023-03-10T15:08:35.623Z,10.53
2023-03-10T15:11:35.921Z,7.90
2023-03-10T15:14:23.316Z,8.93
2023-03-10T15:17:14.815Z,8.40
2023-03-10T15:20:08.710Z,9.53
2023-03-10T15:22:56.173Z,9.60
2023-03-10T15:25:45.304Z,10.37
2023-03-10T15:28:32.536Z,11.27
2023-03-10T15:31:23.248Z,10.97
2023-03-10T15:34:11.522Z,9.90
2023-03-10T15:36:58.341Z,10.17
2023-03-10T15:39:45.012Z,7.90
2023-03-10T15:42:31.659Z,10.00
2023-03-10T15:45:19.381Z,9.77
2023-03-10T15:48:06.578Z,11.17
2023-03-10T15:50:54.707Z,12.57
2023-03-10T15:53:41.495Z,13.60
2023-03-10T15:56:28.327Z,12.77
2023-03-10T15:59:15.120Z,11.47
2023-03-10T16:02:02.176Z,11.33
2023-03-10T16:04:49.326Z,10.57
2023-03-10T16:07:38.859Z,10.83
2023-03-10T16:10:26.078Z,8.97
2023-03-10T16:13:13.828Z,9.63
2023-03-10T16:16:05.976Z,10.93
2023-03-10T16:18:52.950Z,10.30
2023-03-10T16:21:39.560Z,9.47
2023-03-10T16:24:27.669Z,10.37
2023-03-10T16:27:14.718Z,9.53
2023-03-10T16:30:01.640Z,10.43
2023-03-10T16:32:49.258Z,10.87
2023-03-10T16:35:35.686Z,11.33
2023-03-10T16:38:22.654Z,10.43
2023-03-10T16:41:11.641Z,9.93
2023-03-10T16:43:58.359Z,10.37
2023-03-10T16:46:45.097Z,9.17
2023-03-10T16:49:32.809Z,9.07
2023-03-10T16:52:19.501Z,9.27
2023-03-10T16:55:08.853Z,9.70
2023-03-10T16:57:57.765Z,10.20
2023-03-10T17:00:44.274Z,12.33
2023-03-10T17:03:31.016Z,11.47
2023-03-10T17:06:22.700Z,11.77
2023-03-10T17:09:11.133Z,12.93
2023-03-10T17:11:57.853Z,11.93
2023-03-10T17:14:46.017Z,11.73
2023-03-10T17:17:33.470Z,12.90
2023-03-10T17:20:20.187Z,12.70
2023-03-10T17:23:12.708Z,13.43
2023-03-10T17:26:02.969Z,12.47
2023-03-10T17:28:54.799Z,12.37
2023-03-10T17:31:57.991Z,13.67
2023-03-10T17:34:53.800Z,14.47
2023-03-10T17:37:47.030Z,12.83
2023-03-10T17:40:43.781Z,14.60
2023-03-10T17:43:34.482Z,14.30
2023-03-10T17:46:24.228Z,14.60
2023-03-10T17:49:13.506Z,13.47
2023-03-10T17:52:00.181Z,15.30
2023-03-10T17:54:46.857Z,14.20
2023-03-10T17:57:33.720Z,13.23
2023-03-10T18:00:22.410Z,14.87
2023-03-10T18:03:09.475Z,14.80
2023-03-10T18:05:57.938Z,15.00
2023-03-10T18:08:44.684Z,14.60
2023-03-10T18:11:32.359Z,16.27
2023-03-10T18:14:18.757Z,15.97
2023-03-10T18:17:05.671Z,13.37
2023-03-10T18:19:53.447Z,15.27
2023-03-10T18:22:41.407Z,15.17
2023-03-10T18:25:28.238Z,14.70
2023-03-10T18:28:19.274Z,13.80
2023-03-10T18:31:08.231Z,14.57
2023-03-10T18:33:54.918Z,14.17
2023-03-10T18:36:41.666Z,14.17
2023-03-10T18:39:30.053Z,13.93
2023-03-10T18:42:16.515Z,14.47
2023-03-10T18:45:03.380Z,13.63
2023-03-10T18:47:50.345Z,14.20
2023-03-10T18:50:36.906Z,13.43
2023-03-10T18:53:24.417Z,11.63
2023-03-10T18:56:12.556Z,13.73
2023-03-10T18:58:59.146Z,12.23
2023-03-10T19:01:46.030Z,11.20
2023-03-10T19:04:32.884Z,11.83
2023-03-10T19:07:21.358Z,11.83
2023-03-10T19:10:09.207Z,10.00
2023-03-10T19:12:57.669Z,12.87
2023-03-10T19:15:44.405Z,11.70
2023-03-10T19:18:31.185Z,12.47
2023-03-10T19:21:17.946Z,12.90
2023-03-10T19:24:05.001Z,11.33
2023-03-10T19:26:51.633Z,11.77
2023-03-10T19:29:39.624Z,12.03
2023-03-10T19:32:28.525Z,11.73
2023-03-10T19:35:16.189Z,11.80
2023-03-10T19:38:02.753Z,12.00
2023-03-10T19:40:49.400Z,11.53
2023-03-10T19:43:37.586Z,10.77
2023-03-10T19:46:25.647Z,11.77
2023-03-10T19:49:12.352Z,11.63
2023-03-10T19:51:59.176Z,11.10
2023-03-10T19:54:46.119Z,10.07
2023-03-10T19:57:32.832Z,11.70
2023-03-10T20:00:24.995Z,12.50
2023-03-10T20:03:13.863Z,12.87
2023-03-10T20:06:01.485Z,12.40
2023-03-10T20:08:48.718Z,12.90
2023-03-10T20:11:35.398Z,12.37
2023-03-10T20:14:21.888Z,12.23
2023-03-10T20:17:09.255Z,13.40
2023-03-10T20:19:57.432Z,12.30
2023-03-10T20:22:46.390Z,11.90
2023-03-10T20:25:33.139Z,11.93
2023-03-10T20:28:20.123Z,13.07
2023-03-10T20:31:06.996Z,11.73
2023-03-10T20:33:53.924Z,11.53
2023-03-10T20:36:41.725Z,12.63
2023-03-10T20:39:28.492Z,12.07
2023-03-10T20:42:15.216Z,11.40
2023-03-10T20:45:02.625Z,12.10
2023-03-10T20:47:49.795Z,11.83
2023-03-10T20:50:36.904Z,10.90
2023-03-10T20:53:25.017Z,12.33
2023-03-10T20:56:14.332Z,12.93
2023-03-10T20:59:01.916Z,12.90
2023-03-10T21:01:48.727Z,12.93
2023-03-10T21:04:35.326Z,13.63
2023-03-10T21:07:22.014Z,12.43
2023-03-10T21:10:13.369Z,13.17
2023-03-10T21:13:00.039Z,13.27
2023-03-10T21:15:46.947Z,13.60
2023-03-10T21:18:34.166Z,13.07
2023-03-10T21:21:20.592Z,14.27
2023-03-10T21:24:07.557Z,13.50
2023-03-10T21:26:55.882Z,14.17
2023-03-10T21:29:43.198Z,13.33
2023-03-10T21:32:29.805Z,15.47
2023-03-10T21:35:17.838Z,13.87
2023-03-10T21:38:04.389Z,15.70
2023-03-10T21:40:51.072Z,13.93
2023-03-10T21:43:39.283Z,14.60
2023-03-10T21:46:27.334Z,13.63
2023-03-10T21:49:13.792Z,13.20
2023-03-10T21:52:00.589Z,12.70
2023-03-10T21:54:47.587Z,12.30
2023-03-10T21:57:34.168Z,14.07
2023-03-10T22:00:24.378Z,12.00
2023-03-10T22:03:10.857Z,13.37
2023-03-10T22:05:59.666Z,12.90
2023-03-10T22:08:46.310Z,12.33
2023-03-10T22:11:36.044Z,12.47
2023-03-10T22:14:25.403Z,13.27
2023-03-10T22:17:14.044Z,11.70
2023-03-10T22:20:01.844Z,12.30
2023-03-10T22:22:48.720Z,11.97
2023-03-10T22:25:35.806Z,11.17
2023-03-10T22:28:22.335Z,12.93
2023-03-10T22:31:09.955Z,11.93
2023-03-10T22:33:57.783Z,12.67
2023-03-10T22:36:44.460Z,11.83
2023-03-10T22:39:31.060Z,13.23
2023-03-10T22:42:17.728Z,12.13
2023-03-10T22:45:06.105Z,12.13
2023-03-10T22:47:55.220Z,11.97
2023-03-10T22:50:46.757Z,12.27
2023-03-10T22:53:33.324Z,12.53
2023-03-10T22:56:21.070Z,12.30
2023-03-10T22:59:08.327Z,12.40
2023-03-10T23:01:55.080Z,11.93
2023-03-10T23:04:43.050Z,13.33
2023-03-10T23:07:31.016Z,11.80
2023-03-10T23:10:19.716Z,13.27
2023-03-10T23:13:08.522Z,10.07
2023-03-10T23:15:55.445Z,12.57
2023-03-10T23:18:42.235Z,12.70
2023-03-10T23:21:29.023Z,13.20
2023-03-10T23:24:17.166Z,12.67
2023-03-10T23:27:03.935Z,11.67
2023-03-10T23:29:50.781Z,12.53
2023-03-10T23:32:37.508Z,13.50
2023-03-10T23:35:27.079Z,11.47
2023-03-10T23:38:14.077Z,12.50
2023-03-10T23:41:02.006Z,12.23
2023-03-10T23:43:48.646Z,12.20
2023-03-10T23:46:35.508Z,12.57
2023-03-10T23:49:23.559Z,12.73
2023-03-10T23:52:09.965Z,10.47
2023-03-10T23:54:56.760Z,11.77
2023-03-10T23:57:44.870Z,11.83
